createdAt,value
2023-02-04T00:00:51.608Z,2.83
2023-02-04T00:03:20.596Z,3.65
2023-02-04T00:05:48.474Z,3.08
2023-02-04T00:08:16.304Z,3.30
2023-02-04T00:10:47.239Z,3.17
2023-02-04T00:13:15.250Z,3.63
2023-02-04T00:15:43.060Z,3.08
2023-02-04T00:18:11.336Z,3.22
2023-02-04T00:20:41.815Z,2.60
2023-02-04T00:23:09.604Z,3.00
2023-02-04T00:25:37.453Z,2.90
2023-02-04T00:28:06.539Z,2.90
2023-02-04T00:30:38.587Z,3.13
2023-02-04T00:33:09.725Z,2.80
2023-02-04T00:35:40.185Z,2.50
2023-02-04T00:38:08.022Z,3.80
2023-02-04T00:43:19.240Z,3.10
2023-02-04T00:45:49.395Z,2.80
2023-02-04T00:48:17.046Z,2.63
2023-02-04T00:50:47.599Z,2.83
2023-02-04T00:53:15.431Z,3.10
2023-02-04T00:55:43.218Z,2.80
2023-02-04T00:58:15.728Z,2.87
2023-02-04T01:00:46.039Z,3.10
2023-02-04T01:03:18.737Z,2.97
2023-02-04T01:05:47.918Z,2.72
2023-02-04T01:08:17.939Z,2.65
2023-02-04T01:10:45.642Z,2.97
2023-02-04T01:13:15.952Z,3.03
2023-02-04T01:15:44.838Z,3.58
2023-02-04T01:18:12.883Z,2.97
2023-02-04T01:20:45.258Z,4.53
2023-02-04T01:23:15.878Z,3.70
2023-02-04T01:25:43.753Z,3.30
2023-02-04T01:28:14.192Z,3.40
2023-02-04T01:30:44.261Z,2.88
2023-02-04T01:33:17.742Z,3.35
2023-02-04T01:35:45.698Z,3.00
2023-02-04T01:38:15.084Z,3.05
2023-02-04T01:40:48.443Z,3.10
2023-02-04T01:43:18.811Z,3.28
2023-02-04T01:45:46.999Z,4.00
2023-02-04T01:48:20.582Z,3.27
2023-02-04T01:51:02.993Z,3.38
2023-02-04T01:53:32.415Z,3.10
2023-02-04T01:56:13.888Z,2.97
2023-02-04T01:58:41.767Z,3.20
2023-02-04T02:01:33.865Z,3.20
2023-02-04T02:04:05.898Z,3.83
2023-02-04T02:06:35.557Z,3.20
2023-02-04T02:09:05.858Z,2.75
2023-02-04T02:11:37.830Z,3.05
2023-02-04T02:14:07.651Z,3.03
2023-02-04T02:16:35.577Z,3.47
2023-02-04T02:19:05.063Z,3.22
2023-02-04T02:21:40.049Z,3.03
2023-02-04T02:24:31.226Z,3.10
2023-02-04T02:27:05.113Z,3.17
2023-02-04T02:29:33.031Z,3.40
2023-02-04T02:32:01.309Z,3.22
2023-02-04T02:34:34.074Z,3.13
2023-02-04T02:37:10.418Z,3.15
2023-02-04T02:39:41.162Z,3.00
2023-02-04T02:42:23.272Z,3.22
2023-02-04T02:44:51.813Z,3.58
2023-02-04T02:47:24.977Z,3.92
2023-02-04T02:49:57.141Z,3.22
2023-02-04T02:52:25.055Z,3.70
2023-02-04T02:54:54.047Z,3.40
2023-02-04T02:57:25.741Z,3.83
2023-02-04T02:59:55.760Z,3.53
2023-02-04T03:02:24.807Z,3.63
2023-02-04T03:05:00.830Z,3.73
2023-02-04T03:07:38.749Z,3.78
2023-02-04T03:10:09.152Z,3.78
2023-02-04T03:12:39.652Z,3.88
2023-02-04T03:15:13.579Z,3.70
2023-02-04T03:17:47.993Z,3.90
2023-02-04T03:20:17.464Z,4.10
2023-02-04T03:22:47.774Z,4.22
2023-02-04T03:25:19.073Z,4.68
2023-02-04T03:27:47.659Z,3.58
2023-02-04T03:30:17.872Z,3.73
2023-02-04T03:32:49.568Z,3.78
2023-02-04T03:35:21.065Z,3.63
2023-02-04T03:37:51.036Z,4.15
2023-02-04T03:40:19.066Z,3.60
2023-02-04T03:42:46.786Z,3.30
2023-02-04T03:45:14.628Z,3.97
2023-02-04T03:47:44.840Z,3.80
2023-02-04T03:50:14.172Z,3.40
2023-02-04T03:52:50.338Z,3.47
2023-02-04T03:55:25.763Z,5.97
2023-02-04T03:57:54.543Z,3.80
2023-02-04T04:00:25.576Z,3.65
2023-02-04T04:02:57.033Z,3.47
2023-02-04T04:05:29.383Z,4.05
2023-02-04T04:07:59.636Z,4.60
2023-02-04T04:10:32.183Z,4.38
2023-02-04T04:13:00.172Z,5.10
2023-02-04T04:15:27.900Z,4.18
2023-02-04T04:17:55.648Z,4.22
2023-02-04T04:20:28.734Z,4.90
2023-02-04T04:22:59.850Z,4.32
2023-02-04T04:25:30.594Z,4.47
2023-02-04T04:28:01.572Z,4.22
2023-02-04T04:30:32.708Z,4.20
2023-02-04T04:33:10.845Z,4.03
2023-02-04T04:35:41.645Z,4.30
2023-02-04T04:38:11.977Z,4.45
2023-02-04T04:40:41.970Z,3.80
2023-02-04T04:43:12.001Z,3.92
2023-02-04T04:45:42.950Z,4.40
2023-02-04T04:48:15.094Z,3.80
2023-02-04T04:50:43.011Z,4.10
2023-02-04T04:53:11.548Z,4.25
2023-02-04T04:55:39.746Z,3.90
2023-02-04T04:58:09.396Z,4.37
2023-02-04T05:00:37.434Z,4.20
2023-02-04T05:03:05.202Z,4.15
2023-02-04T05:05:41.129Z,4.10
2023-02-04T05:08:19.684Z,4.28
2023-02-04T05:10:49.451Z,4.93
2023-02-04T05:13:29.964Z,4.45
2023-02-04T05:15:58.957Z,4.18
2023-02-04T05:18:27.489Z,3.92
2023-02-04T05:20:55.459Z,4.38
2023-02-04T05:23:23.214Z,4.80
2023-02-04T05:25:50.931Z,5.30
2023-02-04T05:28:21.020Z,4.03
2023-02-04T05:30:51.667Z,4.28
2023-02-04T05:36:41.401Z,4.90
2023-02-04T05:39:09.454Z,4.18
2023-02-04T05:41:43.517Z,4.65
2023-02-04T05:44:11.334Z,4.97
2023-02-04T05:46:42.105Z,4.47
2023-02-04T05:49:12.344Z,4.67
2023-02-04T05:51:42.673Z,4.97
2023-02-04T05:54:19.695Z,4.53
2023-02-04T05:57:06.933Z,4.75
2023-02-04T05:59:44.344Z,4.63
2023-02-04T06:02:14.575Z,4.93
2023-02-04T06:04:44.995Z,4.60
2023-02-04T06:07:22.583Z,4.90
2023-02-04T06:09:50.476Z,4.43
2023-02-04T06:12:20.983Z,4.63
2023-02-04T06:14:51.744Z,4.50
2023-02-04T06:17:19.540Z,5.47
2023-02-04T06:19:47.199Z,5.78
2023-02-04T06:22:26.265Z,4.90
2023-02-04T06:24:53.957Z,5.20
2023-02-04T06:27:24.170Z,5.60
2023-02-04T06:29:54.715Z,5.70
2023-02-04T06:32:32.202Z,6.20
2023-02-04T06:35:02.619Z,5.85
2023-02-04T06:37:32.860Z,5.38
2023-02-04T06:40:00.602Z,7.87
2023-02-04T06:42:28.451Z,11.50
2023-02-04T06:44:56.176Z,13.00
2023-02-04T06:47:30.956Z,10.55
2023-02-04T06:50:00.457Z,9.52
2023-02-04T06:52:33.334Z,7.97
2023-02-04T06:55:03.549Z,7.03
2023-02-04T06:57:31.270Z,5.78
2023-02-04T06:59:59.180Z,6.47
2023-02-04T07:02:29.381Z,5.80
2023-02-04T07:04:57.169Z,6.37
2023-02-04T07:07:27.775Z,5.97
2023-02-04T07:09:55.544Z,5.55
2023-02-04T07:12:35.411Z,5.50
2023-02-04T07:15:18.581Z,7.30
2023-02-04T07:18:08.815Z,6.10
2023-02-04T07:20:48.748Z,6.53
2023-02-04T07:23:37.944Z,8.20
2023-02-04T07:26:16.154Z,6.25
2023-02-04T07:28:51.412Z,6.40
2023-02-04T07:31:31.482Z,6.90
2023-02-04T07:34:02.052Z,6.00
2023-02-04T07:36:33.494Z,5.60
2023-02-04T07:39:05.495Z,6.03
2023-02-04T07:42:24.022Z,5.80
2023-02-04T07:44:56.744Z,7.17
2023-02-04T07:47:24.831Z,6.30
2023-02-04T07:49:54.906Z,7.50
2023-02-04T07:52:25.691Z,6.85
2023-02-04T07:54:56.515Z,6.50
2023-02-04T07:57:24.392Z,7.80
2023-02-04T07:59:53.282Z,5.63
2023-02-04T08:02:20.946Z,5.45
2023-02-04T08:04:48.807Z,5.72
2023-02-04T08:07:16.524Z,5.70
2023-02-04T08:09:44.299Z,5.80
2023-02-04T08:12:17.594Z,6.30
2023-02-04T08:14:46.455Z,5.38
2023-02-04T08:17:14.077Z,5.20
2023-02-04T08:19:41.768Z,6.18
2023-02-04T08:22:11.806Z,6.20
2023-02-04T08:24:39.614Z,5.00
2023-02-04T08:27:09.142Z,4.32
2023-02-04T08:29:40.262Z,3.20
2023-02-04T08:32:10.400Z,3.40
2023-02-04T08:34:38.056Z,3.77
2023-02-04T08:37:09.181Z,4.38
2023-02-04T09:36:33.921Z,6.77
2023-02-04T09:39:20.911Z,4.10
2023-02-04T09:41:56.481Z,2.47
2023-02-04T09:45:31.858Z,3.10
2023-02-04T09:49:19.332Z,3.20
2023-02-04T09:56:23.465Z,4.90
2023-02-04T10:44:48.546Z,2.20
2023-02-04T11:45:50.838Z,1.70
2023-02-04T11:48:21.120Z,2.17
2023-02-04T11:51:00.664Z,1.40
2023-02-04T11:53:32.890Z,1.90
2023-02-04T11:56:02.258Z,1.50
2023-02-04T11:58:31.311Z,1.48
2023-02-04T12:00:59.637Z,1.80
2023-02-04T12:03:36.362Z,2.03
2023-02-04T12:06:04.301Z,1.60
2023-02-04T12:08:39.683Z,1.27
2023-02-04T12:11:11.507Z,2.00
2023-02-04T12:13:50.547Z,4.97
2023-02-04T12:16:23.512Z,1.90
2023-02-04T12:18:51.634Z,1.60
2023-02-04T12:21:19.625Z,2.53
2023-02-04T12:23:53.516Z,1.90
2023-02-04T12:26:21.430Z,2.10
2023-02-04T12:28:49.078Z,2.30
2023-02-04T12:31:16.947Z,1.90
2023-02-04T12:33:44.833Z,2.75
2023-02-04T12:36:12.578Z,1.48
2023-02-04T12:38:40.914Z,1.60
2023-02-04T12:41:08.785Z,1.60
2023-02-04T12:43:38.852Z,1.73
2023-02-04T12:46:10.501Z,1.15
2023-02-04T12:48:43.216Z,1.83
2023-02-04T12:51:14.180Z,1.67
2023-02-04T12:53:41.959Z,1.50
2023-02-04T12:56:11.902Z,1.30
2023-02-04T12:58:42.582Z,1.35
2023-02-04T13:01:14.187Z,1.40
2023-02-04T13:03:45.111Z,2.88
2023-02-04T13:06:16.166Z,1.83
2023-02-04T13:08:43.988Z,1.80
2023-02-04T13:11:11.786Z,1.17
2023-02-04T13:13:39.495Z,1.73
2023-02-04T13:16:07.596Z,1.42
2023-02-04T13:18:35.308Z,1.40
2023-02-04T13:24:24.774Z,1.30
2023-02-04T13:27:04.146Z,2.17
2023-02-04T13:29:32.276Z,1.35
2023-02-04T13:32:08.811Z,1.73
2023-02-04T13:34:36.672Z,1.10
2023-02-04T13:37:04.519Z,1.30
2023-02-04T13:39:32.270Z,2.77
2023-02-04T13:41:59.976Z,2.03
2023-02-04T13:44:27.896Z,1.40
2023-02-04T13:46:55.767Z,1.88
2023-02-04T13:49:31.234Z,1.33
2023-02-04T13:52:03.712Z,3.47
2023-02-04T13:54:35.879Z,1.70
2023-02-04T13:57:16.208Z,1.80
2023-02-04T14:00:21.552Z,1.20
2023-02-04T14:03:00.806Z,1.38
2023-02-04T14:05:41.558Z,1.63
2023-02-04T14:08:14.853Z,1.80
2023-02-04T14:10:48.266Z,1.30
2023-02-04T14:13:30.627Z,1.48
2023-02-04T14:16:05.339Z,1.33
2023-02-04T14:18:33.373Z,1.55
2023-02-04T14:21:04.618Z,1.63
2023-02-04T14:23:38.454Z,1.70
2023-02-04T14:26:12.313Z,2.20
2023-02-04T14:28:44.991Z,1.30
2023-02-04T14:31:42.319Z,1.38
2023-02-04T14:34:16.898Z,1.67
2023-02-04T14:36:47.523Z,1.13
2023-02-04T14:39:21.855Z,2.03
2023-02-04T14:41:59.170Z,1.55
2023-02-04T14:44:29.284Z,1.60
2023-02-04T14:46:57.039Z,1.80
2023-02-04T14:49:27.255Z,1.90
2023-02-04T14:51:57.643Z,1.30
2023-02-04T14:54:28.977Z,1.58
2023-02-04T14:57:01.908Z,1.55
2023-02-04T14:59:33.743Z,1.95
2023-02-04T15:02:04.890Z,1.65
2023-02-04T15:04:40.282Z,2.00
2023-02-04T15:07:11.946Z,1.97
2023-02-04T15:09:44.925Z,1.80
2023-02-04T15:12:19.549Z,1.60
2023-02-04T15:18:04.556Z,1.88
2023-02-04T15:22:07.749Z,1.20
2023-02-04T16:28:18.437Z,2.55
2023-02-04T16:31:30.133Z,2.00
2023-02-04T16:34:52.798Z,1.52
2023-02-04T16:44:52.643Z,2.03
2023-02-04T16:52:23.633Z,2.25
2023-02-04T16:58:43.796Z,1.67
2023-02-04T18:34:35.618Z,4.83
2023-02-04T18:37:58.856Z,3.97
2023-02-04T19:00:00.023Z,4.57
2023-02-04T19:02:30.365Z,4.55
2023-02-04T19:05:12.841Z,4.32
2023-02-04T19:07:49.100Z,5.20
2023-02-04T19:10:53.872Z,5.07
2023-02-04T19:13:39.703Z,5.07
2023-02-04T19:16:10.732Z,4.80
2023-02-04T19:18:51.425Z,5.82
2023-02-04T19:21:34.431Z,5.50
2023-02-04T19:24:21.290Z,6.10
2023-02-04T19:26:56.208Z,6.38
2023-02-04T19:29:29.898Z,6.45
2023-02-04T19:32:19.348Z,7.35
2023-02-04T19:34:47.272Z,7.50
2023-02-04T19:37:23.524Z,7.00
2023-02-04T19:39:54.374Z,6.82
2023-02-04T19:42:32.697Z,6.72
2023-02-04T19:45:23.640Z,7.22
2023-02-04T19:47:58.833Z,7.07
2023-02-04T19:50:43.021Z,7.20
2023-02-04T19:53:23.531Z,6.97
2023-02-04T19:55:55.791Z,7.15
2023-02-04T19:58:29.086Z,7.00
2023-02-04T20:01:09.618Z,7.03
2023-02-04T20:03:48.231Z,10.15
2023-02-04T20:06:30.258Z,8.10
2023-02-04T20:09:18.567Z,7.88
2023-02-04T20:11:59.775Z,7.35
2023-02-04T20:14:56.408Z,7.13
2023-02-04T20:17:39.772Z,7.70
2023-02-04T20:20:30.756Z,7.70
2023-02-04T20:23:02.857Z,6.88
2023-02-04T20:25:36.421Z,7.80
2023-02-04T20:28:37.009Z,7.50
2023-02-04T20:31:31.904Z,6.45
2023-02-04T20:34:02.953Z,7.60
2023-02-04T20:36:36.499Z,6.72
2023-02-04T20:39:17.619Z,7.00
2023-02-04T20:41:48.049Z,7.27
2023-02-04T20:44:22.885Z,7.28
2023-02-04T20:46:54.687Z,7.43
2023-02-04T20:49:42.726Z,7.28
2023-02-04T20:52:46.350Z,8.60
2023-02-04T20:55:25.292Z,8.27
2023-02-04T20:58:25.910Z,7.75
2023-02-04T21:00:56.121Z,7.45
2023-02-04T21:03:38.055Z,7.97
2023-02-04T21:06:30.972Z,7.93
2023-02-04T21:09:12.310Z,8.23
2023-02-04T21:11:45.084Z,7.35
2023-02-04T21:14:15.818Z,6.70
2023-02-04T21:16:55.859Z,7.25
2023-02-04T21:19:28.153Z,7.18
2023-02-04T21:22:08.350Z,6.60
2023-02-04T21:24:48.355Z,6.28
2023-02-04T21:27:27.923Z,6.25
2023-02-04T21:30:03.792Z,6.57
2023-02-04T21:32:34.616Z,6.47
2023-02-04T21:35:02.501Z,6.40
2023-02-04T21:37:32.701Z,6.43
2023-02-04T21:40:09.976Z,6.45
2023-02-04T21:42:40.095Z,5.57
2023-02-04T21:45:09.868Z,6.13
2023-02-04T21:47:38.826Z,5.87
2023-02-04T21:50:08.630Z,6.63
2023-02-04T21:52:45.893Z,5.90
2023-02-04T21:55:23.454Z,5.68
2023-02-04T21:58:06.736Z,5.25
2023-02-04T22:00:34.680Z,4.83
2023-02-04T22:03:02.762Z,5.00
2023-02-04T22:05:30.632Z,4.90
2023-02-04T22:07:59.800Z,5.20
2023-02-04T22:10:30.355Z,4.90
2023-02-04T22:12:58.224Z,4.73
2023-02-04T22:15:25.922Z,4.63
2023-02-04T22:17:54.146Z,4.97
2023-02-04T22:20:26.111Z,4.35
2023-02-04T22:22:54.424Z,4.50
2023-02-04T22:25:23.694Z,4.80
2023-02-04T22:27:51.483Z,5.10
2023-02-04T22:30:39.799Z,4.13
2023-02-04T22:33:11.613Z,3.50
2023-02-04T22:35:39.428Z,3.45
2023-02-04T22:38:07.296Z,3.97
2023-02-04T22:40:38.031Z,4.30
2023-02-04T22:43:06.176Z,4.50
2023-02-04T22:45:34.113Z,4.60
2023-02-04T22:48:02.112Z,3.75
2023-02-04T22:50:30.531Z,3.70
2023-02-04T22:52:58.338Z,4.10
2023-02-04T22:55:26.175Z,4.68
2023-02-04T22:57:54.428Z,4.00
2023-02-04T23:00:21.999Z,4.70
2023-02-04T23:02:50.008Z,3.90
2023-02-04T23:05:17.634Z,3.38
2023-02-04T23:07:45.333Z,3.95
2023-02-04T23:10:15.636Z,3.70
2023-02-04T23:12:43.376Z,3.78
2023-02-04T23:15:15.761Z,3.50
2023-02-04T23:17:43.625Z,4.35
2023-02-04T23:20:11.692Z,4.10
2023-02-04T23:22:39.983Z,3.45
2023-02-04T23:25:08.139Z,4.25
2023-02-04T23:27:35.980Z,4.60
2023-02-04T23:30:07.486Z,3.92
2023-02-04T23:32:36.245Z,4.70
2023-02-04T23:35:03.906Z,4.60
2023-02-04T23:37:35.042Z,5.50
2023-02-04T23:40:03.753Z,5.70
2023-02-04T23:42:36.949Z,5.07
2023-02-04T23:45:06.018Z,5.00
2023-02-04T23:47:33.785Z,4.45
2023-02-04T23:53:04.282Z,4.10
2023-02-04T23:55:32.727Z,3.92
2023-02-04T23:58:09.878Z,4.43
